createdAt,value
2022-08-03T00:01:20.364Z,5.37
2022-08-03T00:03:49.032Z,3.35
2022-08-03T00:06:17.766Z,3.33
2022-08-03T00:08:46.508Z,4.10
2022-08-03T00:11:15.032Z,3.90
2022-08-03T00:13:43.615Z,3.05
2022-08-03T00:16:13.372Z,2.58
2022-08-03T00:18:42.143Z,4.10
2022-08-03T00:21:10.772Z,6.33
2022-08-03T00:23:52.580Z,3.60
2022-08-03T00:26:09.852Z,2.75
2022-08-03T00:28:38.569Z,5.80
2022-08-03T00:31:07.685Z,3.35
2022-08-03T00:33:59.149Z,6.10
2022-08-03T00:36:08.385Z,2.90
2022-08-03T00:38:37.169Z,3.85
2022-08-03T00:41:05.799Z,3.35
2022-08-03T00:43:34.574Z,4.05
2022-08-03T00:46:03.993Z,2.80
2022-08-03T00:48:33.596Z,4.47
2022-08-03T00:51:03.196Z,3.83
2022-08-03T00:53:32.023Z,3.22
2022-08-03T00:56:00.843Z,2.77
2022-08-03T00:58:29.613Z,2.58
2022-08-03T01:00:59.023Z,2.80
2022-08-03T01:03:27.752Z,4.50
2022-08-03T01:06:20.870Z,4.15
2022-08-03T01:09:01.592Z,7.35
2022-08-03T01:12:01.259Z,8.85
2022-08-03T01:14:20.037Z,7.30
2022-08-03T01:16:51.906Z,5.05
2022-08-03T01:19:42.573Z,7.10
2022-08-03T01:22:26.210Z,5.80
2022-08-03T01:25:00.349Z,4.17
2022-08-03T01:27:32.019Z,5.35
2022-08-03T01:30:09.366Z,5.55
2022-08-03T01:33:02.733Z,3.67
2022-08-03T01:35:32.109Z,7.40
2022-08-03T01:38:08.226Z,7.83
2022-08-03T01:40:39.824Z,4.55
2022-08-03T01:43:11.642Z,4.65
2022-08-03T01:45:40.984Z,6.72
2022-08-03T01:48:10.325Z,4.30
2022-08-03T01:50:39.690Z,5.03
2022-08-03T01:53:09.837Z,6.78
2022-08-03T01:55:39.894Z,4.92
2022-08-03T01:58:09.344Z,5.12
2022-08-03T02:00:39.447Z,4.45
2022-08-03T02:03:09.404Z,4.28
2022-08-03T02:05:40.616Z,5.72
2022-08-03T02:08:11.500Z,7.58
2022-08-03T02:10:50.857Z,5.80
2022-08-03T02:13:21.492Z,6.05
2022-08-03T02:15:53.525Z,6.47
2022-08-03T02:18:23.398Z,5.10
2022-08-03T02:20:53.113Z,6.30
2022-08-03T02:23:21.794Z,5.12
2022-08-03T02:25:53.446Z,5.90
2022-08-03T02:28:25.266Z,5.50
2022-08-03T02:30:55.657Z,7.47
2022-08-03T02:33:27.390Z,11.65
2022-08-03T02:35:58.033Z,5.10
2022-08-03T02:38:29.703Z,6.85
2022-08-03T02:41:00.928Z,5.30
2022-08-03T02:43:39.192Z,6.15
2022-08-03T02:46:01.954Z,6.75
2022-08-03T02:48:33.571Z,6.10
2022-08-03T02:51:04.687Z,4.83
2022-08-03T02:53:35.609Z,4.28
2022-08-03T02:56:06.479Z,5.25
2022-08-03T02:58:35.595Z,6.15
2022-08-03T03:01:08.567Z,6.40
2022-08-03T03:03:44.903Z,6.85
2022-08-03T03:06:10.061Z,5.33
2022-08-03T03:08:40.487Z,5.60
2022-08-03T03:11:11.224Z,6.47
2022-08-03T03:13:42.699Z,4.90
2022-08-03T03:16:13.499Z,6.42
2022-08-03T03:18:44.679Z,6.78
2022-08-03T03:21:15.753Z,4.55
2022-08-03T03:26:16.603Z,5.03
2022-08-03T03:28:46.072Z,7.28
2022-08-03T03:31:14.807Z,5.55
2022-08-03T03:33:43.717Z,7.90
2022-08-03T03:36:12.293Z,6.70
2022-08-03T03:38:41.033Z,7.87
2022-08-03T03:41:10.968Z,5.67
2022-08-03T03:43:39.816Z,10.10
2022-08-03T03:46:08.753Z,6.35
2022-08-03T03:48:37.401Z,8.03
2022-08-03T03:51:06.727Z,4.03
2022-08-03T03:53:35.560Z,6.62
2022-08-03T03:56:04.308Z,7.12
2022-08-03T03:58:33.830Z,8.30
2022-08-03T04:01:02.550Z,7.00
2022-08-03T04:03:31.551Z,6.12
2022-08-03T04:06:18.017Z,5.17
2022-08-03T04:09:04.737Z,7.72
2022-08-03T04:11:54.223Z,8.15
2022-08-03T04:14:39.866Z,7.08
2022-08-03T04:17:10.395Z,6.65
2022-08-03T04:19:41.979Z,6.42
2022-08-03T04:22:13.563Z,6.00
2022-08-03T04:24:48.534Z,10.00
2022-08-03T04:27:20.045Z,6.78
2022-08-03T04:29:51.733Z,5.22
2022-08-03T04:32:20.982Z,7.15
2022-08-03T04:34:49.632Z,6.75
2022-08-03T04:37:21.280Z,5.67
2022-08-03T04:39:51.834Z,6.60
2022-08-03T04:42:23.374Z,6.65
2022-08-03T04:44:55.570Z,5.20
2022-08-03T04:47:24.255Z,3.45
2022-08-03T04:49:53.379Z,3.67
2022-08-03T04:52:22.110Z,3.98
2022-08-03T04:54:51.184Z,3.25
2022-08-03T04:57:22.717Z,4.05
2022-08-03T04:59:52.844Z,3.50
2022-08-03T05:02:22.853Z,3.40
2022-08-03T05:04:51.682Z,3.52
2022-08-03T05:07:24.815Z,3.37
2022-08-03T05:09:57.490Z,3.20
2022-08-03T05:12:20.764Z,3.80
2022-08-03T05:14:49.359Z,3.35
2022-08-03T05:17:19.508Z,3.70
2022-08-03T05:19:48.031Z,3.50
2022-08-03T05:22:16.447Z,3.98
2022-08-03T05:24:44.869Z,2.85
2022-08-03T05:27:14.689Z,3.22
2022-08-03T05:29:43.198Z,2.98
2022-08-03T05:32:11.520Z,2.98
2022-08-03T05:34:39.769Z,3.10
2022-08-03T05:37:08.091Z,2.70
2022-08-03T05:39:38.180Z,2.92
2022-08-03T05:42:06.560Z,3.00
2022-08-03T05:44:36.721Z,3.22
2022-08-03T05:47:05.654Z,2.85
2022-08-03T05:49:34.169Z,3.42
2022-08-03T05:52:11.290Z,3.05
2022-08-03T05:54:56.012Z,3.42
2022-08-03T05:57:05.040Z,3.17
2022-08-03T05:59:38.492Z,3.08
2022-08-03T06:02:03.963Z,2.60
2022-08-03T06:04:32.353Z,2.05
2022-08-03T06:07:00.659Z,3.12
2022-08-03T06:10:34.022Z,3.67
2022-08-03T06:11:59.601Z,2.55
2022-08-03T06:14:27.864Z,3.00
2022-08-03T06:16:56.130Z,2.85
2022-08-03T06:19:25.370Z,2.77
2022-08-03T06:21:57.039Z,6.65
2022-08-03T06:24:25.508Z,3.85
2022-08-03T06:26:55.482Z,2.55
2022-08-03T06:29:23.939Z,4.50
2022-08-03T06:31:52.205Z,2.55
2022-08-03T06:34:34.095Z,2.60
2022-08-03T06:36:51.100Z,1.77
2022-08-03T06:39:23.682Z,2.83
2022-08-03T06:41:51.420Z,2.47
2022-08-03T06:44:19.908Z,2.83
2022-08-03T06:46:48.268Z,2.58
2022-08-03T06:49:16.638Z,2.65
2022-08-03T06:52:03.529Z,2.52
2022-08-03T06:54:15.029Z,2.52
2022-08-03T06:56:43.392Z,2.52
2022-08-03T07:00:08.706Z,3.02
2022-08-03T07:01:41.610Z,2.87
2022-08-03T07:04:09.827Z,2.33
2022-08-03T07:06:39.048Z,2.05
2022-08-03T07:09:07.396Z,2.25
2022-08-03T07:11:35.751Z,1.75
2022-08-03T07:14:04.187Z,2.67
2022-08-03T07:16:32.442Z,2.15
2022-08-03T07:19:00.733Z,2.15
2022-08-03T07:21:29.062Z,2.52
2022-08-03T07:23:57.336Z,1.95
2022-08-03T07:26:25.645Z,2.42
2022-08-03T07:28:53.889Z,3.35
2022-08-03T07:31:22.326Z,2.70
2022-08-03T07:33:50.665Z,3.20
2022-08-03T07:36:18.917Z,1.95
2022-08-03T07:38:47.204Z,1.60
2022-08-03T11:11:36.951Z,2.85
2022-08-03T11:14:12.662Z,2.30
2022-08-03T11:16:46.644Z,1.45
2022-08-03T11:19:16.698Z,0.97
2022-08-03T11:21:55.154Z,1.00
2022-08-03T11:24:40.278Z,1.30
2022-08-03T11:27:18.350Z,1.00
2022-08-03T11:29:56.784Z,1.10
2022-08-03T11:32:46.777Z,1.20
2022-08-03T11:35:17.544Z,0.95
2022-08-03T11:38:03.163Z,1.60
2022-08-03T11:40:44.865Z,1.10
2022-08-03T11:43:34.831Z,0.93
2022-08-03T11:46:04.280Z,1.20
2022-08-03T11:48:36.383Z,1.22
2022-08-03T11:51:05.363Z,2.70
2022-08-03T11:53:34.087Z,1.40
2022-08-03T11:56:04.047Z,2.35
2022-08-03T11:59:16.737Z,1.30
2022-08-03T12:01:05.596Z,0.80
2022-08-03T12:03:35.117Z,6.08
2022-08-03T12:06:04.578Z,1.07
2022-08-03T12:08:33.523Z,1.00
2022-08-03T12:11:02.952Z,1.45
2022-08-03T12:13:56.631Z,1.35
2022-08-03T12:16:02.972Z,3.77
2022-08-03T12:18:32.805Z,0.98
2022-08-03T12:21:05.516Z,1.95
2022-08-03T12:23:37.404Z,2.17
2022-08-03T12:26:05.274Z,0.80
2022-08-03T12:28:37.206Z,2.77
2022-08-03T12:31:06.403Z,1.42
2022-08-03T13:40:12.375Z,1.45
2022-08-03T13:42:42.270Z,2.65
2022-08-03T13:45:11.356Z,1.22
2022-08-03T13:47:39.576Z,1.65
2022-08-03T13:50:08.023Z,1.30
2022-08-03T13:52:36.649Z,0.80
2022-08-03T13:55:06.466Z,0.93
2022-08-03T13:58:05.335Z,2.02
2022-08-03T14:00:08.386Z,0.90
2022-08-03T14:02:37.167Z,2.50
2022-08-03T14:05:05.820Z,1.70
2022-08-03T14:07:34.223Z,0.90
2022-08-03T14:10:02.528Z,1.62
2022-08-03T14:12:31.726Z,0.70
2022-08-03T14:15:01.786Z,0.80
2022-08-03T14:17:42.239Z,1.40
2022-08-03T14:20:00.130Z,1.87
2022-08-03T14:22:29.350Z,1.30
2022-08-03T14:24:57.819Z,1.45
2022-08-03T14:27:26.571Z,2.17
2022-08-03T14:29:56.416Z,0.80
2022-08-03T14:32:24.652Z,1.45
2022-08-03T14:34:53.314Z,0.65
2022-08-03T14:37:21.868Z,0.70
2022-08-03T14:40:05.845Z,1.05
2022-08-03T14:42:20.542Z,1.87
2022-08-03T14:44:48.831Z,0.70
2022-08-03T14:47:17.949Z,0.72
2022-08-03T14:50:36.115Z,0.65
2022-08-03T14:52:16.447Z,2.05
2022-08-03T14:54:45.918Z,0.88
2022-08-03T14:57:14.099Z,1.15
2022-08-03T14:59:56.634Z,0.90
2022-08-03T15:02:23.419Z,1.02
2022-08-03T15:04:44.075Z,1.00
2022-08-03T15:07:12.378Z,0.95
2022-08-03T15:09:40.674Z,1.27
2022-08-03T15:12:09.070Z,0.70
2022-08-03T15:14:37.844Z,0.60
2022-08-03T15:17:06.729Z,0.70
2022-08-03T15:20:00.263Z,3.58
2022-08-03T15:22:05.405Z,0.95
2022-08-03T15:24:35.321Z,0.85
2022-08-03T15:27:06.240Z,0.93
2022-08-03T15:30:04.759Z,0.90
2022-08-03T15:32:08.735Z,0.60
2022-08-03T15:34:33.276Z,1.20
2022-08-03T15:37:01.608Z,0.50
2022-08-03T15:39:30.041Z,0.45
2022-08-03T15:41:58.690Z,0.70
2022-08-03T15:44:26.966Z,0.90
2022-08-03T17:25:39.739Z,0.40
2022-08-03T17:28:49.758Z,0.45
2022-08-03T17:30:56.292Z,0.80
2022-08-03T17:33:26.247Z,1.25
2022-08-03T17:35:58.573Z,0.98
2022-08-03T17:38:31.910Z,0.45
2022-08-03T17:40:57.046Z,1.15
2022-08-03T17:44:13.052Z,1.32
2022-08-03T17:45:55.769Z,2.25
2022-08-03T17:48:24.896Z,0.75
2022-08-03T17:50:55.174Z,0.88
2022-08-03T17:53:24.971Z,2.02
2022-08-03T17:56:04.937Z,2.50
2022-08-03T17:58:35.045Z,1.92
2022-08-03T18:02:00.694Z,0.62
2022-08-03T18:03:58.029Z,1.15
2022-08-03T18:08:54.938Z,2.60
2022-08-03T18:11:23.866Z,0.82
2022-08-03T18:13:58.273Z,4.70
2022-08-03T18:16:28.025Z,1.17
2022-08-03T18:18:57.949Z,1.40
2022-08-03T18:22:02.108Z,1.35
2022-08-03T18:23:59.490Z,2.42
2022-08-03T18:26:28.486Z,0.50
2022-08-03T18:28:58.675Z,2.15
2022-08-03T18:31:59.834Z,3.58
2022-08-03T18:34:17.378Z,1.10
2022-08-03T18:36:30.148Z,1.65
2022-08-03T18:38:59.269Z,2.02
2022-08-03T18:41:32.189Z,2.45
2022-08-03T18:44:08.394Z,1.32
2022-08-03T18:46:33.973Z,1.20
2022-08-03T18:49:18.837Z,1.52
2022-08-03T18:51:47.293Z,2.87
2022-08-03T18:54:45.668Z,1.15
2022-08-03T18:56:51.514Z,2.55
2022-08-03T18:59:30.103Z,2.30
2022-08-03T19:01:59.641Z,1.40
2022-08-03T19:04:26.562Z,1.00
2022-08-03T19:06:56.384Z,1.00
2022-08-03T19:09:29.753Z,1.20
2022-08-03T19:12:13.899Z,0.72
2022-08-03T19:14:30.113Z,4.28
2022-08-03T19:17:01.009Z,0.78
2022-08-03T19:19:44.152Z,0.98
2022-08-03T19:22:00.174Z,2.22
2022-08-03T19:24:29.286Z,0.90
2022-08-03T19:26:58.711Z,1.60
2022-08-03T19:29:58.838Z,1.20
2022-08-03T19:32:01.834Z,2.55
2022-08-03T19:34:32.532Z,0.80
2022-08-03T19:37:01.568Z,1.92
2022-08-03T19:39:31.874Z,0.75
2022-08-03T19:42:06.319Z,1.25
2022-08-03T19:44:34.126Z,3.10
2022-08-03T19:47:04.518Z,1.75
2022-08-03T19:50:05.192Z,0.90
2022-08-03T19:52:06.790Z,1.20
2022-08-03T19:54:52.970Z,2.67
2022-08-03T19:57:16.066Z,1.07
2022-08-03T19:59:50.024Z,1.85
2022-08-03T20:02:17.945Z,3.42
2022-08-03T20:04:44.892Z,1.77
2022-08-03T20:07:18.045Z,1.22
2022-08-03T20:09:46.724Z,1.32
2022-08-03T20:12:16.803Z,2.20
2022-08-03T20:14:47.992Z,1.27
2022-08-03T20:17:20.965Z,3.77
2022-08-03T20:19:49.479Z,3.80
2022-08-03T20:22:18.692Z,3.35
2022-08-03T20:24:52.587Z,1.92
2022-08-03T20:27:19.664Z,1.32
2022-08-03T20:30:07.004Z,2.10
2022-08-03T20:32:24.666Z,3.33
2022-08-03T20:34:50.708Z,0.80
2022-08-03T20:37:20.612Z,1.95
2022-08-03T20:39:49.982Z,1.45
2022-08-03T20:42:21.678Z,1.70
2022-08-03T20:45:04.430Z,1.70
2022-08-03T20:47:23.921Z,1.62
2022-08-03T20:49:49.860Z,1.02
2022-08-03T20:52:19.158Z,1.57
2022-08-03T20:54:48.262Z,1.72
2022-08-03T20:57:17.661Z,1.10
2022-08-03T20:59:50.840Z,2.95
2022-08-03T21:02:19.987Z,1.77
2022-08-03T21:04:47.415Z,1.37
2022-08-03T21:07:17.934Z,2.00
2022-08-03T21:09:55.464Z,3.80
2022-08-03T21:12:27.056Z,4.17
2022-08-03T21:13:03.914Z,0.40
2022-08-03T21:14:58.219Z,1.20
2022-08-03T21:17:40.075Z,2.12
2022-08-03T21:19:57.409Z,2.15
2022-08-03T21:22:26.490Z,2.25
2022-08-03T21:25:15.494Z,2.40
2022-08-03T21:27:43.900Z,1.55
2022-08-03T21:30:12.613Z,1.55
2022-08-03T21:32:42.401Z,3.62
2022-08-03T21:35:10.728Z,1.75
2022-08-03T21:37:42.683Z,3.20
2022-08-03T21:40:12.187Z,1.05
2022-08-03T21:42:41.642Z,1.87
2022-08-03T21:45:16.538Z,1.77
2022-08-03T21:47:42.710Z,1.65
2022-08-03T21:50:12.121Z,1.70
2022-08-03T21:52:47.429Z,1.95
2022-08-03T21:55:18.480Z,1.07
2022-08-03T21:57:47.570Z,1.80
2022-08-03T22:00:17.314Z,2.00
2022-08-03T22:02:53.057Z,2.33
2022-08-03T22:05:18.057Z,2.42
2022-08-03T22:07:48.206Z,1.55
2022-08-03T22:10:16.550Z,1.90
2022-08-03T22:12:44.968Z,2.47
2022-08-03T22:15:13.723Z,2.25
2022-08-03T22:17:54.897Z,1.77
2022-08-03T22:20:17.202Z,1.92
2022-08-03T22:22:55.044Z,2.40
2022-08-03T22:25:16.586Z,1.87
2022-08-03T22:27:45.984Z,1.82
2022-08-03T22:30:15.282Z,1.42
2022-08-03T22:32:44.177Z,1.95
2022-08-03T22:35:13.321Z,3.33
2022-08-03T22:37:42.125Z,2.10
2022-08-03T22:40:11.980Z,2.65
2022-08-03T22:42:41.064Z,2.65
2022-08-03T22:45:09.767Z,2.35
2022-08-03T22:47:39.187Z,2.58
2022-08-03T22:50:31.692Z,3.75
2022-08-03T22:52:39.530Z,4.45
2022-08-03T22:55:08.861Z,1.85
2022-08-03T22:57:37.186Z,4.20
2022-08-03T23:00:10.549Z,2.20
2022-08-03T23:02:40.377Z,1.67
2022-08-03T23:05:10.996Z,1.92
2022-08-03T23:07:40.352Z,3.50
2022-08-03T23:10:10.073Z,2.08
2022-08-03T23:12:39.312Z,4.67
2022-08-03T23:15:08.666Z,4.22
2022-08-03T23:17:58.035Z,3.98
2022-08-03T23:20:09.229Z,2.87
2022-08-03T23:22:39.018Z,3.95
2022-08-03T23:25:09.096Z,2.40
2022-08-03T23:27:39.746Z,5.25
2022-08-03T23:30:08.329Z,4.40
2022-08-03T23:32:36.950Z,3.83
2022-08-03T23:36:29.595Z,1.37
2022-08-03T23:38:04.258Z,1.72
2022-08-03T23:40:28.673Z,4.47
2022-08-03T23:42:57.696Z,2.95
2022-08-03T23:45:27.491Z,3.10
2022-08-03T23:47:55.975Z,3.45
2022-08-03T23:50:24.384Z,3.17
2022-08-03T23:53:00.204Z,1.20
2022-08-03T23:55:30.007Z,2.90
2022-08-03T23:57:59.852Z,1.77
